createdAt,value
2023-08-08T00:02:06.683Z,81.67
2023-08-08T00:05:09.622Z,81.56
2023-08-08T00:08:11.542Z,82.02
2023-08-08T00:11:13.425Z,82.75
2023-08-08T00:14:15.502Z,81.75
2023-08-08T00:17:17.383Z,81.64
2023-08-08T00:20:19.273Z,82.16
2023-08-08T00:23:21.194Z,82.05
2023-08-08T00:26:23.069Z,81.42
2023-08-08T00:29:25.155Z,81.69
2023-08-08T00:32:26.979Z,82.18
2023-08-08T00:35:28.932Z,82.75
2023-08-08T00:38:30.944Z,82.25
2023-08-08T00:41:32.771Z,83.05
2023-08-08T00:44:34.625Z,82.60
2023-08-08T00:47:36.643Z,82.52
2023-08-08T00:50:45.170Z,82.80
2023-08-08T00:53:48.563Z,81.42
2023-08-08T00:56:50.490Z,82.44
2023-08-08T00:59:52.775Z,81.76
2023-08-08T01:02:54.752Z,81.88
2023-08-08T01:06:09.954Z,82.32
2023-08-08T01:09:29.713Z,82.59
2023-08-08T01:12:32.640Z,82.34
2023-08-08T01:15:38.783Z,82.85
2023-08-08T01:18:46.002Z,83.49
2023-08-08T01:21:53.057Z,83.78
2023-08-08T01:24:55.726Z,83.32
2023-08-08T01:27:57.591Z,82.06
2023-08-08T01:30:59.539Z,82.57
2023-08-08T01:34:01.478Z,82.48
2023-08-08T01:37:19.293Z,81.90
2023-08-08T01:40:22.699Z,83.35
2023-08-08T01:43:25.545Z,84.99
2023-08-08T01:46:28.029Z,83.61
2023-08-08T01:49:29.981Z,84.23
2023-08-08T01:52:31.852Z,84.21
2023-08-08T01:55:33.811Z,82.42
2023-08-08T01:58:35.587Z,82.20
2023-08-08T02:01:37.667Z,82.49
2023-08-08T02:04:40.303Z,83.10
2023-08-08T02:07:42.190Z,83.11
2023-08-08T02:10:44.069Z,83.80
2023-08-08T02:13:45.944Z,83.45
2023-08-08T02:16:47.804Z,83.42
2023-08-08T02:19:49.928Z,85.19
2023-08-08T02:22:51.838Z,83.37
2023-08-08T02:25:53.703Z,83.01
2023-08-08T02:28:55.589Z,84.79
2023-08-08T02:31:57.710Z,87.24
2023-08-08T02:34:59.795Z,87.61
2023-08-08T02:38:01.645Z,88.05
2023-08-08T02:41:03.494Z,86.56
2023-08-08T02:44:05.347Z,87.35
2023-08-08T02:47:07.467Z,88.16
2023-08-08T02:50:09.995Z,87.74
2023-08-08T02:53:12.460Z,88.38
2023-08-08T02:56:14.310Z,88.52
2023-08-08T02:59:16.177Z,89.19
2023-08-08T03:02:18.084Z,89.71
2023-08-08T03:05:19.948Z,89.76
2023-08-08T03:08:21.742Z,90.74
2023-08-08T03:11:23.606Z,90.76
2023-08-08T03:14:25.413Z,89.95
2023-08-08T03:17:27.313Z,91.32
2023-08-08T03:20:29.209Z,91.83
2023-08-08T03:23:31.200Z,88.17
2023-08-08T03:26:33.026Z,89.25
2023-08-08T03:29:34.869Z,88.51
2023-08-08T03:32:36.706Z,89.60
2023-08-08T03:35:38.512Z,89.30
2023-08-08T03:38:40.371Z,90.96
2023-08-08T03:41:42.165Z,90.93
2023-08-08T03:44:46.292Z,90.65
2023-08-08T03:47:48.660Z,90.99
2023-08-08T03:50:50.584Z,90.43
2023-08-08T03:53:52.479Z,90.34
2023-08-08T03:56:54.401Z,90.78
2023-08-08T03:59:56.451Z,91.17
2023-08-08T04:02:58.540Z,89.67
2023-08-08T04:06:00.468Z,88.90
2023-08-08T04:09:02.408Z,89.45
2023-08-08T04:12:04.533Z,90.51
2023-08-08T04:15:06.798Z,90.12
2023-08-08T04:18:08.761Z,89.33
2023-08-08T04:21:10.779Z,90.50
2023-08-08T04:24:13.500Z,90.04
2023-08-08T04:27:15.413Z,90.54
2023-08-08T04:30:17.429Z,90.13
2023-08-08T04:33:19.268Z,88.80
2023-08-08T04:36:21.084Z,88.43
2023-08-08T04:39:23.018Z,88.70
2023-08-08T04:42:24.843Z,87.99
2023-08-08T04:45:28.352Z,88.30
2023-08-08T04:48:30.257Z,85.61
2023-08-08T04:51:37.517Z,81.85
2023-08-08T04:54:53.679Z,80.66
2023-08-08T04:58:01.751Z,79.05
2023-08-08T05:01:23.677Z,74.07
2023-08-08T05:28:35.746Z,70.02
2023-08-08T05:32:12.425Z,70.75
2023-08-08T05:35:17.367Z,70.38
2023-08-08T05:38:19.287Z,69.28
2023-08-08T05:41:21.183Z,68.34
2023-08-08T05:44:23.040Z,67.46
2023-08-08T05:47:24.875Z,66.28
2023-08-08T05:50:28.356Z,66.46
2023-08-08T05:53:30.275Z,68.55
2023-08-08T05:56:38.333Z,67.13
2023-08-08T05:59:40.500Z,68.79
2023-08-08T06:02:42.581Z,65.61
2023-08-08T06:05:44.711Z,66.50
2023-08-08T06:08:46.554Z,63.85
2023-08-08T06:12:06.992Z,63.89
2023-08-08T06:15:09.750Z,60.83
2023-08-08T06:18:11.621Z,58.95
2023-08-08T06:21:15.830Z,57.91
2023-08-08T06:24:17.734Z,57.57
2023-08-08T06:27:19.546Z,56.77
2023-08-08T06:30:21.620Z,58.69
2023-08-08T06:33:23.490Z,58.39
2023-08-08T06:36:25.344Z,59.69
2023-08-08T06:39:27.401Z,55.67
2023-08-08T06:42:29.250Z,53.24
2023-08-08T06:45:31.165Z,48.64
2023-08-08T06:48:32.992Z,49.45
2023-08-08T06:51:35.012Z,45.37
2023-08-08T06:54:36.950Z,47.01
2023-08-08T06:57:38.819Z,43.38
2023-08-08T07:00:40.882Z,45.05
2023-08-08T07:03:42.831Z,44.86
2023-08-08T07:06:48.128Z,44.92
2023-08-08T07:09:50.254Z,50.40
2023-08-08T07:12:52.678Z,52.38
2023-08-08T07:15:54.593Z,52.42
2023-08-08T07:18:56.880Z,55.10
2023-08-08T07:21:59.250Z,49.86
2023-08-08T07:25:01.590Z,50.47
2023-08-08T07:28:06.682Z,49.93
2023-08-08T07:31:08.591Z,42.91
2023-08-08T07:34:10.464Z,46.37
2023-08-08T07:37:12.299Z,45.18
2023-08-08T07:40:21.599Z,49.59
2023-08-08T07:43:23.442Z,50.74
2023-08-08T07:46:25.655Z,42.96
2023-08-08T07:49:27.486Z,40.20
2023-08-08T07:52:29.373Z,46.45
2023-08-08T07:55:31.352Z,44.59
2023-08-08T07:58:33.669Z,46.93
2023-08-08T08:01:35.704Z,42.90
2023-08-08T08:04:37.559Z,39.72
2023-08-08T08:07:40.043Z,39.32
2023-08-08T08:10:41.938Z,43.20
2023-08-08T08:13:44.161Z,48.47
2023-08-08T08:16:46.669Z,47.82
2023-08-08T08:19:48.626Z,51.23
2023-08-08T08:22:50.632Z,52.60
2023-08-08T08:25:52.625Z,55.48
2023-08-08T08:28:54.524Z,55.31
2023-08-08T08:31:56.511Z,55.91
2023-08-08T08:34:58.336Z,51.71
2023-08-08T08:38:00.144Z,53.03
2023-08-08T08:41:04.450Z,48.18
2023-08-08T08:44:09.369Z,42.04
2023-08-08T08:47:14.154Z,45.30
2023-08-08T08:50:17.068Z,46.87
2023-08-08T08:53:19.119Z,48.18
2023-08-08T08:56:21.529Z,45.54
2023-08-08T08:59:23.670Z,47.83
2023-08-08T09:02:25.566Z,47.88
2023-08-08T09:05:27.825Z,48.25
2023-08-08T09:08:30.673Z,52.82
2023-08-08T09:11:33.036Z,56.48
2023-08-08T09:14:35.320Z,54.75
2023-08-08T09:17:47.493Z,55.64
2023-08-08T09:20:52.190Z,51.20
2023-08-08T09:23:54.011Z,57.84
2023-08-08T09:26:55.850Z,56.34
2023-08-08T09:29:57.942Z,59.18
2023-08-08T09:33:02.079Z,57.41
2023-08-08T09:36:04.189Z,56.92
2023-08-08T09:39:06.289Z,54.69
2023-08-08T09:42:11.222Z,57.51
2023-08-08T09:45:13.999Z,58.89
2023-08-08T09:48:17.521Z,59.80
2023-08-08T09:51:21.571Z,57.98
2023-08-08T09:54:24.762Z,52.89
2023-08-08T09:57:27.162Z,48.89
2023-08-08T10:00:31.510Z,50.68
2023-08-08T10:03:34.456Z,49.27
2023-08-08T10:06:37.143Z,49.40
2023-08-08T10:09:39.883Z,50.67
2023-08-08T10:12:42.767Z,51.78
2023-08-08T10:15:44.747Z,49.95
2023-08-08T10:18:56.837Z,50.01
2023-08-08T10:22:01.841Z,52.48
2023-08-08T10:25:05.750Z,48.92
2023-08-08T10:31:23.441Z,47.67
2023-08-08T10:34:38.243Z,51.24
2023-08-08T10:37:40.922Z,46.68
2023-08-08T10:40:44.807Z,47.20
2023-08-08T10:43:58.438Z,39.98
2023-08-08T10:47:01.668Z,44.03
2023-08-08T10:50:22.749Z,43.09
2023-08-08T10:53:28.081Z,44.92
2023-08-08T10:56:32.478Z,41.48
2023-08-08T10:59:38.901Z,41.22
2023-08-08T11:02:42.113Z,40.69
2023-08-08T11:05:52.086Z,40.36
2023-08-08T11:08:55.667Z,42.45
2023-08-08T11:11:57.828Z,40.34
2023-08-08T11:15:00.225Z,37.02
2023-08-08T11:18:03.394Z,39.76
2023-08-08T11:21:18.285Z,36.78
2023-08-08T11:24:21.170Z,35.08
2023-08-08T11:30:33.599Z,38.33
2023-08-08T11:33:35.600Z,38.05
2023-08-08T11:36:38.496Z,39.84
2023-08-08T11:39:40.527Z,41.73
2023-08-08T11:42:43.617Z,42.10
2023-08-08T11:45:45.488Z,40.61
2023-08-08T11:48:48.256Z,38.80
2023-08-08T11:51:50.074Z,37.53
2023-08-08T11:54:54.877Z,39.97
2023-08-08T11:58:01.305Z,34.25
2023-08-08T12:01:03.458Z,35.30
2023-08-08T12:04:07.946Z,37.19
2023-08-08T12:07:11.068Z,41.69
2023-08-08T12:10:20.925Z,39.31
2023-08-08T12:13:24.611Z,38.44
2023-08-08T12:16:32.266Z,39.41
2023-08-08T12:19:35.500Z,36.56
2023-08-08T12:22:37.991Z,38.84
2023-08-08T12:25:40.380Z,34.92
2023-08-08T12:28:42.601Z,35.74
2023-08-08T12:31:44.508Z,35.55
2023-08-08T12:34:46.491Z,36.98
2023-08-08T12:37:48.501Z,38.53
2023-08-08T12:40:50.787Z,34.12
2023-08-08T12:43:53.489Z,38.46
2023-08-08T12:46:55.509Z,35.23
2023-08-08T12:49:57.469Z,35.15
2023-08-08T12:52:59.505Z,37.12
2023-08-08T12:56:01.686Z,37.67
2023-08-08T12:59:04.150Z,36.60
2023-08-08T13:02:06.105Z,37.23
2023-08-08T13:05:08.300Z,36.33
2023-08-08T13:08:10.242Z,37.08
2023-08-08T13:11:12.248Z,41.05
2023-08-08T13:14:14.048Z,40.16
2023-08-08T13:17:15.986Z,40.53
2023-08-08T13:20:17.899Z,40.97
2023-08-08T13:23:19.789Z,44.35
2023-08-08T13:26:21.688Z,40.78
2023-08-08T13:29:23.645Z,43.83
2023-08-08T13:32:25.639Z,43.32
2023-08-08T13:35:27.560Z,44.39
2023-08-08T13:38:29.414Z,44.36
2023-08-08T13:41:31.691Z,44.28
2023-08-08T13:44:33.506Z,44.41
2023-08-08T13:47:35.508Z,46.22
2023-08-08T13:50:37.362Z,48.52
2023-08-08T13:53:39.222Z,46.42
2023-08-08T13:56:41.052Z,46.56
2023-08-08T13:59:43.113Z,47.47
2023-08-08T14:02:44.996Z,46.71
2023-08-08T14:05:47.217Z,49.58
2023-08-08T14:08:49.567Z,47.18
2023-08-08T14:11:51.534Z,48.85
2023-08-08T14:14:53.331Z,47.42
2023-08-08T14:17:55.667Z,50.17
2023-08-08T14:20:57.705Z,51.21
2023-08-08T14:23:59.550Z,52.41
2023-08-08T14:27:01.866Z,48.18
2023-08-08T14:30:05.109Z,49.92
2023-08-08T14:33:07.206Z,48.41
2023-08-08T14:36:09.605Z,49.69
2023-08-08T14:39:12.267Z,51.48
2023-08-08T14:42:14.577Z,48.87
2023-08-08T14:45:16.478Z,48.81
2023-08-08T14:48:18.404Z,50.44
2023-08-08T14:51:21.269Z,49.68
2023-08-08T14:54:23.341Z,52.92
2023-08-08T14:57:25.500Z,53.96
2023-08-08T15:00:27.456Z,54.69
2023-08-08T15:03:29.416Z,55.57
2023-08-08T15:06:31.403Z,56.28
2023-08-08T15:09:33.244Z,55.89
2023-08-08T15:12:35.142Z,56.15
2023-08-08T15:15:37.243Z,54.69
2023-08-08T15:18:39.205Z,55.09
2023-08-08T15:21:41.072Z,52.55
2023-08-08T15:24:43.208Z,53.98
2023-08-08T15:27:45.149Z,51.75
2023-08-08T15:30:47.127Z,52.55
2023-08-08T15:33:49.312Z,53.57
2023-08-08T15:36:51.832Z,52.31
2023-08-08T15:39:53.972Z,53.36
2023-08-08T15:42:56.148Z,55.00
2023-08-08T15:46:00.143Z,52.16
2023-08-08T15:49:02.674Z,53.68
2023-08-08T15:52:04.786Z,52.76
2023-08-08T15:55:07.110Z,53.83
2023-08-08T15:58:09.058Z,54.06
2023-08-08T16:01:11.210Z,54.66
2023-08-08T16:04:16.044Z,54.18
2023-08-08T16:07:19.450Z,54.01
2023-08-08T16:10:21.271Z,53.88
2023-08-08T16:13:23.459Z,54.30
2023-08-08T16:16:25.452Z,55.61
2023-08-08T16:19:27.375Z,54.62
2023-08-08T16:22:29.229Z,53.60
2023-08-08T16:25:31.157Z,54.34
2023-08-08T16:28:33.535Z,54.67
2023-08-08T16:31:35.917Z,54.01
2023-08-08T16:34:37.933Z,54.96
2023-08-08T16:37:39.795Z,54.69
2023-08-08T16:40:41.763Z,56.15
2023-08-08T16:43:43.690Z,56.13
2023-08-08T16:46:45.681Z,56.41
2023-08-08T16:49:47.894Z,57.24
2023-08-08T16:52:50.035Z,56.83
2023-08-08T16:55:52.120Z,57.41
2023-08-08T16:58:54.168Z,57.67
2023-08-08T17:01:56.212Z,57.89
2023-08-08T17:04:58.137Z,57.27
2023-08-08T17:08:00.268Z,59.48
2023-08-08T17:11:02.221Z,58.42
2023-08-08T17:14:04.630Z,58.94
2023-08-08T17:17:06.500Z,61.21
2023-08-08T17:20:08.924Z,61.29
2023-08-08T17:23:11.115Z,62.04
2023-08-08T17:26:14.067Z,60.79
2023-08-08T17:29:16.083Z,61.20
2023-08-08T17:32:18.225Z,62.44
2023-08-08T17:35:20.198Z,62.07
2023-08-08T17:38:22.033Z,62.03
2023-08-08T17:41:23.859Z,61.31
2023-08-08T17:44:25.738Z,62.24
2023-08-08T17:47:27.665Z,63.85
2023-08-08T17:50:29.508Z,62.56
2023-08-08T17:53:31.403Z,62.88
2023-08-08T17:56:33.240Z,64.35
2023-08-08T17:59:35.043Z,63.81
2023-08-08T18:02:40.205Z,63.89
2023-08-08T18:05:42.172Z,64.61
2023-08-08T18:08:44.108Z,65.40
2023-08-08T18:11:46.782Z,64.58
2023-08-08T18:14:49.957Z,66.19
2023-08-08T18:17:51.959Z,66.83
2023-08-08T18:20:54.777Z,65.52
2023-08-08T18:23:57.071Z,64.87
2023-08-08T18:27:00.823Z,65.91
2023-08-08T18:30:02.742Z,66.99
2023-08-08T18:33:04.852Z,66.37
2023-08-08T18:36:08.139Z,67.68
2023-08-08T18:39:11.595Z,67.34
2023-08-08T18:42:16.224Z,68.37
2023-08-08T18:45:18.108Z,67.95
2023-08-08T18:48:20.790Z,68.31
2023-08-08T18:51:22.832Z,69.35
2023-08-08T18:54:25.556Z,70.67
2023-08-08T18:57:27.800Z,69.89
2023-08-08T19:00:29.819Z,68.17
2023-08-08T19:03:32.169Z,69.24
2023-08-08T19:06:34.312Z,65.59
2023-08-08T19:09:36.341Z,67.46
2023-08-08T19:12:38.469Z,66.17
2023-08-08T19:15:40.666Z,68.08
2023-08-08T19:18:42.498Z,65.38
2023-08-08T19:21:44.667Z,65.63
2023-08-08T19:24:46.724Z,66.30
2023-08-08T19:27:48.837Z,65.68
2023-08-08T19:30:50.806Z,66.18
2023-08-08T19:34:05.597Z,66.53
2023-08-08T19:37:12.694Z,67.02
2023-08-08T19:40:14.691Z,66.73
2023-08-08T19:43:17.214Z,66.23
2023-08-08T19:46:19.184Z,66.69
2023-08-08T19:49:21.133Z,64.24
2023-08-08T19:52:24.192Z,65.11
2023-08-08T19:55:26.239Z,64.70
2023-08-08T19:58:28.242Z,65.59
2023-08-08T20:01:30.875Z,65.11
2023-08-08T20:04:32.785Z,65.49
2023-08-08T20:07:34.883Z,63.20
2023-08-08T20:10:36.904Z,64.06
2023-08-08T20:13:38.838Z,63.10
2023-08-08T20:16:40.861Z,61.57
2023-08-08T20:19:43.015Z,63.24
2023-08-08T20:22:45.070Z,62.36
2023-08-08T20:25:46.921Z,62.58
2023-08-08T20:28:49.648Z,62.39
2023-08-08T20:31:51.496Z,62.99
2023-08-08T20:34:53.343Z,62.79
2023-08-08T20:37:55.182Z,61.96
2023-08-08T20:40:57.112Z,63.76
2023-08-08T20:43:59.086Z,63.43
2023-08-08T20:47:01.308Z,61.76
2023-08-08T20:50:06.386Z,62.53
2023-08-08T20:53:11.940Z,61.64
2023-08-08T20:56:13.698Z,61.64
2023-08-08T20:59:15.538Z,61.98
2023-08-08T21:02:18.822Z,61.66
2023-08-08T21:05:23.171Z,62.30
2023-08-08T21:08:25.019Z,61.16
2023-08-08T21:11:26.900Z,60.07
2023-08-08T21:14:28.729Z,61.60
2023-08-08T21:17:30.663Z,62.53
2023-08-08T21:20:32.563Z,60.87
2023-08-08T21:23:34.394Z,57.98
2023-08-08T21:26:39.934Z,58.08
2023-08-08T21:29:44.839Z,60.04
2023-08-08T21:32:46.734Z,61.09
2023-08-08T21:35:49.292Z,58.24
2023-08-08T21:38:53.593Z,61.63
2023-08-08T21:41:55.929Z,61.23
2023-08-08T21:44:58.339Z,62.47
2023-08-08T21:48:00.723Z,61.27
2023-08-08T21:51:03.068Z,58.76
2023-08-08T21:54:05.605Z,59.26
2023-08-08T21:57:08.012Z,62.54
2023-08-08T22:00:15.790Z,59.79
2023-08-08T22:03:18.129Z,60.83
2023-08-08T22:06:20.047Z,60.48
2023-08-08T22:09:21.927Z,61.13
2023-08-08T22:12:23.793Z,63.43
2023-08-08T22:15:25.584Z,60.93
2023-08-08T22:18:27.699Z,59.97
2023-08-08T22:21:29.640Z,58.74
2023-08-08T22:24:34.100Z,63.05
2023-08-08T22:27:36.236Z,60.40
2023-08-08T22:30:38.216Z,59.98
2023-08-08T22:33:40.265Z,60.62
2023-08-08T22:36:42.109Z,61.76
2023-08-08T22:39:43.941Z,60.22
2023-08-08T22:42:45.730Z,62.46
2023-08-08T22:45:47.584Z,59.58
2023-08-08T22:48:49.408Z,60.70
2023-08-08T22:51:51.324Z,61.37
2023-08-08T22:54:54.328Z,58.61
2023-08-08T22:57:57.473Z,57.65
2023-08-08T23:01:04.982Z,59.17
2023-08-08T23:04:16.142Z,59.07
2023-08-08T23:07:19.459Z,59.02
2023-08-08T23:10:21.326Z,58.75
2023-08-08T23:13:23.467Z,58.05
2023-08-08T23:16:25.327Z,59.95
2023-08-08T23:19:27.118Z,57.81
2023-08-08T23:22:28.913Z,60.74
2023-08-08T23:25:30.716Z,59.21
2023-08-08T23:28:32.598Z,60.02
2023-08-08T23:31:34.561Z,59.60
2023-08-08T23:34:36.512Z,60.02
2023-08-08T23:37:39.107Z,58.06
2023-08-08T23:40:40.877Z,60.05
2023-08-08T23:43:44.430Z,60.18
2023-08-08T23:46:46.381Z,60.60
2023-08-08T23:49:48.306Z,59.92
2023-08-08T23:52:50.480Z,59.67
2023-08-08T23:55:52.357Z,60.01
2023-08-08T23:58:54.162Z,60.95
